Terminal Aerodrome Forecast
Issued by NWS

Home | Current Version | Previous Version | Text Only | Print | Product List | Glossary Off
Versions: 1 2 3 4 5 6 7 8 9 10 11 12 13 14 15 16

357
FTUS43 KGRB 182051 AAA
TAFMTW
TAF AMD
KMTW 182051Z 1821/1918 03012G23KT P6SM OVC018
      TEMPO 1821/1822 5SM -SN
     FM182200 02011G21KT 4SM -SN BKN012 OVC020
     FM190200 01013G24KT P6SM SCT150 WS015/03035KT
     FM191000 35013G20KT P6SM SKC=

USA.gov is the U.S. government's official web portal to all federal, state and local government web resources and services.